sensor_id;sensor_type;location;lat;lon;timestamp;P1;durP1;ratioP1;P2;durP2;ratioP2
20101;SDS011;10210;52.284;9.892;2024-03-02T00:02:12;24.03;;;13.00;;
20101;SDS011;10210;52.284;9.892;2024-03-02T00:04:39;23.57;;;13.57;;
20101;SDS011;10210;52.284;9.892;2024-03-02T00:07:05;22.07;;;12.33;;
20101;SDS011;10210;52.284;9.892;2024-03-02T00:09:32;24.27;;;13.47;;
20101;SDS011;10210;52.284;9.892;2024-03-02T00:11:59;21.43;;;12.17;;
20101;SDS011;10210;52.284;9.892;2024-03-02T00:14:25;20.50;;;11.73;;
20101;SDS011;10210;52.284;9.892;2024-03-02T00:16:56;22.23;;;11.67;;
20101;SDS011;10210;52.284;9.892;2024-03-02T00:19:22;26.67;;;14.13;;
20101;SDS011;10210;52.284;9.892;2024-03-02T00:21:48;23.77;;;13.27;;
20101;SDS011;10210;52.284;9.892;2024-03-02T00:24:31;23.70;;;12.27;;
20101;SDS011;10210;52.284;9.892;2024-03-02T00:26:59;22.37;;;12.30;;
20101;SDS011;10210;52.284;9.892;2024-03-02T00:29:28;22.97;;;12.83;;
20101;SDS011;10210;52.284;9.892;2024-03-02T00:31:54;24.70;;;13.20;;
20101;SDS011;10210;52.284;9.892;2024-03-02T00:34:21;25.07;;;13.67;;
20101;SDS011;10210;52.284;9.892;2024-03-02T00:36:47;23.47;;;13.97;;
20101;SDS011;10210;52.284;9.892;2024-03-02T00:39:14;25.00;;;12.77;;
20101;SDS011;10210;52.284;9.892;2024-03-02T00:41:42;24.37;;;14.03;;
20101;SDS011;10210;52.284;9.892;2024-03-02T00:44:09;22.87;;;12.63;;
20101;SDS011;10210;52.284;9.892;2024-03-02T00:46:38;25.23;;;14.43;;
20101;SDS011;10210;52.284;9.892;2024-03-02T00:49:11;24.43;;;14.17;;
20101;SDS011;10210;52.284;9.892;2024-03-02T00:51:37;24.60;;;13.60;;
20101;SDS011;10210;52.284;9.892;2024-03-02T00:54:05;22.43;;;12.23;;
20101;SDS011;10210;52.284;9.892;2024-03-02T00:56:34;22.50;;;12.20;;
20101;SDS011;10210;52.284;9.892;2024-03-02T00:59:00;23.10;;;12.50;;
20101;SDS011;10210;52.284;9.892;2024-03-02T01:01:26;24.93;;;11.77;;
20101;SDS011;10210;52.284;9.892;2024-03-02T01:03:52;22.10;;;11.80;;
20101;SDS011;10210;52.284;9.892;2024-03-02T01:06:18;22.73;;;11.47;;
20101;SDS011;10210;52.284;9.892;2024-03-02T01:08:44;21.23;;;11.63;;
20101;SDS011;10210;52.284;9.892;2024-03-02T01:11:11;23.53;;;12.37;;
20101;SDS011;10210;52.284;9.892;2024-03-02T01:13:36;21.07;;;11.80;;
20101;SDS011;10210;52.284;9.892;2024-03-02T01:16:02;20.67;;;11.37;;
20101;SDS011;10210;52.284;9.892;2024-03-02T01:18:29;21.90;;;11.23;;
20101;SDS011;10210;52.284;9.892;2024-03-02T01:20:54;19.17;;;10.80;;
20101;SDS011;10210;52.284;9.892;2024-03-02T01:23:21;18.60;;;9.97;;
20101;SDS011;10210;52.284;9.892;2024-03-02T01:25:48;20.07;;;10.17;;
20101;SDS011;10210;52.284;9.892;2024-03-02T01:28:14;18.93;;;9.67;;
20101;SDS011;10210;52.284;9.892;2024-03-02T01:30:40;21.63;;;11.87;;
20101;SDS011;10210;52.284;9.892;2024-03-02T01:33:06;22.37;;;11.40;;
20101;SDS011;10210;52.284;9.892;2024-03-02T01:35:32;21.37;;;11.43;;
20101;SDS011;10210;52.284;9.892;2024-03-02T01:37:58;21.47;;;11.00;;
20101;SDS011;10210;52.284;9.892;2024-03-02T01:40:23;20.40;;;10.83;;
20101;SDS011;10210;52.284;9.892;2024-03-02T01:42:53;25.20;;;12.47;;
20101;SDS011;10210;52.284;9.892;2024-03-02T01:45:21;24.93;;;12.80;;
20101;SDS011;10210;52.284;9.892;2024-03-02T01:47:47;23.10;;;12.40;;
20101;SDS011;10210;52.284;9.892;2024-03-02T01:50:13;25.47;;;13.50;;
20101;SDS011;10210;52.284;9.892;2024-03-02T01:52:39;24.00;;;13.23;;
20101;SDS011;10210;52.284;9.892;2024-03-02T01:55:05;24.13;;;12.33;;
20101;SDS011;10210;52.284;9.892;2024-03-02T01:57:32;24.97;;;13.93;;
20101;SDS011;10210;52.284;9.892;2024-03-02T02:00:01;26.73;;;14.30;;
20101;SDS011;10210;52.284;9.892;2024-03-02T02:02:28;27.57;;;14.97;;
20101;SDS011;10210;52.284;9.892;2024-03-02T02:04:54;27.33;;;15.30;;
20101;SDS011;10210;52.284;9.892;2024-03-02T02:07:19;27.47;;;15.90;;
20101;SDS011;10210;52.284;9.892;2024-03-02T02:09:45;26.73;;;15.73;;
20101;SDS011;10210;52.284;9.892;2024-03-02T02:12:11;29.90;;;15.70;;
20101;SDS011;10210;52.284;9.892;2024-03-02T02:14:36;26.87;;;14.97;;
20101;SDS011;10210;52.284;9.892;2024-03-02T02:17:02;26.90;;;15.07;;
20101;SDS011;10210;52.284;9.892;2024-03-02T02:19:28;29.73;;;15.83;;
20101;SDS011;10210;52.284;9.892;2024-03-02T02:21:54;30.97;;;17.80;;
20101;SDS011;10210;52.284;9.892;2024-03-02T02:24:20;28.63;;;16.17;;
20101;SDS011;10210;52.284;9.892;2024-03-02T02:26:46;29.43;;;17.40;;
20101;SDS011;10210;52.284;9.892;2024-03-02T02:29:12;30.20;;;17.93;;
20101;SDS011;10210;52.284;9.892;2024-03-02T02:31:38;31.23;;;17.57;;
20101;SDS011;10210;52.284;9.892;2024-03-02T02:34:05;29.03;;;16.70;;
20101;SDS011;10210;52.284;9.892;2024-03-02T02:36:32;25.63;;;15.37;;
20101;SDS011;10210;52.284;9.892;2024-03-02T02:39:01;27.37;;;15.73;;
20101;SDS011;10210;52.284;9.892;2024-03-02T02:41:29;30.17;;;17.23;;
20101;SDS011;10210;52.284;9.892;2024-03-02T02:43:55;27.30;;;15.30;;
20101;SDS011;10210;52.284;9.892;2024-03-02T02:46:21;26.80;;;14.93;;
20101;SDS011;10210;52.284;9.892;2024-03-02T02:48:47;26.20;;;15.20;;
20101;SDS011;10210;52.284;9.892;2024-03-02T02:51:13;23.80;;;12.87;;
20101;SDS011;10210;52.284;9.892;2024-03-02T02:53:39;23.20;;;12.77;;
20101;SDS011;10210;52.284;9.892;2024-03-02T02:56:06;26.57;;;14.43;;
20101;SDS011;10210;52.284;9.892;2024-03-02T02:58:32;27.27;;;14.87;;
20101;SDS011;10210;52.284;9.892;2024-03-02T03:00:57;24.20;;;14.00;;
20101;SDS011;10210;52.284;9.892;2024-03-02T03:03:23;25.40;;;13.97;;
20101;SDS011;10210;52.284;9.892;2024-03-02T03:05:49;24.17;;;13.33;;
20101;SDS011;10210;52.284;9.892;2024-03-02T03:08:14;25.47;;;13.20;;
20101;SDS011;10210;52.284;9.892;2024-03-02T03:10:41;25.67;;;14.30;;
20101;SDS011;10210;52.284;9.892;2024-03-02T03:13:07;26.40;;;14.10;;
20101;SDS011;10210;52.284;9.892;2024-03-02T03:15:36;25.33;;;13.57;;
20101;SDS011;10210;52.284;9.892;2024-03-02T03:18:02;26.63;;;14.93;;
20101;SDS011;10210;52.284;9.892;2024-03-02T03:20:29;23.50;;;13.30;;
20101;SDS011;10210;52.284;9.892;2024-03-02T03:22:56;26.83;;;13.47;;
20101;SDS011;10210;52.284;9.892;2024-03-02T03:25:22;24.17;;;13.23;;
20101;SDS011;10210;52.284;9.892;2024-03-02T03:27:48;24.00;;;12.57;;
20101;SDS011;10210;52.284;9.892;2024-03-02T03:30:14;24.70;;;13.03;;
20101;SDS011;10210;52.284;9.892;2024-03-02T03:32:40;23.07;;;12.00;;
20101;SDS011;10210;52.284;9.892;2024-03-02T03:35:06;23.93;;;12.60;;
20101;SDS011;10210;52.284;9.892;2024-03-02T03:37:32;21.67;;;11.07;;
20101;SDS011;10210;52.284;9.892;2024-03-02T03:39:58;23.37;;;12.40;;
20101;SDS011;10210;52.284;9.892;2024-03-02T03:42:26;22.00;;;11.87;;
20101;SDS011;10210;52.284;9.892;2024-03-02T03:44:52;24.17;;;12.47;;
20101;SDS011;10210;52.284;9.892;2024-03-02T03:47:17;25.70;;;14.10;;
20101;SDS011;10210;52.284;9.892;2024-03-02T03:49:43;23.90;;;12.73;;
20101;SDS011;10210;52.284;9.892;2024-03-02T03:52:09;25.07;;;13.63;;
20101;SDS011;10210;52.284;9.892;2024-03-02T03:54:34;24.33;;;12.37;;
20101;SDS011;10210;52.284;9.892;2024-03-02T03:57:02;22.37;;;12.23;;
20101;SDS011;10210;52.284;9.892;2024-03-02T03:59:27;23.73;;;12.63;;
20101;SDS011;10210;52.284;9.892;2024-03-02T04:01:53;22.07;;;12.20;;
20101;SDS011;10210;52.284;9.892;2024-03-02T04:04:19;23.37;;;12.70;;
20101;SDS011;10210;52.284;9.892;2024-03-02T04:06:44;24.67;;;13.43;;
20101;SDS011;10210;52.284;9.892;2024-03-02T04:09:10;22.83;;;11.70;;
20101;SDS011;10210;52.284;9.892;2024-03-02T04:11:36;22.77;;;11.50;;
20101;SDS011;10210;52.284;9.892;2024-03-02T04:14:02;21.37;;;11.43;;
20101;SDS011;10210;52.284;9.892;2024-03-02T04:16:27;24.17;;;12.27;;
20101;SDS011;10210;52.284;9.892;2024-03-02T04:18:53;20.80;;;10.97;;
20101;SDS011;10210;52.284;9.892;2024-03-02T04:21:19;21.50;;;11.20;;
20101;SDS011;10210;52.284;9.892;2024-03-02T04:23:45;23.67;;;12.50;;
20101;SDS011;10210;52.284;9.892;2024-03-02T04:26:11;23.37;;;12.00;;
20101;SDS011;10210;52.284;9.892;2024-03-02T04:28:36;23.53;;;12.10;;
20101;SDS011;10210;52.284;9.892;2024-03-02T04:31:02;23.97;;;12.80;;
20101;SDS011;10210;52.284;9.892;2024-03-02T04:33:28;22.80;;;12.13;;
20101;SDS011;10210;52.284;9.892;2024-03-02T04:35:53;22.97;;;12.83;;
20101;SDS011;10210;52.284;9.892;2024-03-02T04:38:19;22.70;;;12.10;;
20101;SDS011;10210;52.284;9.892;2024-03-02T04:40:45;25.10;;;13.60;;
20101;SDS011;10210;52.284;9.892;2024-03-02T04:43:10;23.90;;;12.73;;
20101;SDS011;10210;52.284;9.892;2024-03-02T04:45:39;26.47;;;14.77;;
20101;SDS011;10210;52.284;9.892;2024-03-02T04:48:05;25.57;;;14.70;;
20101;SDS011;10210;52.284;9.892;2024-03-02T04:50:32;24.80;;;12.77;;
20101;SDS011;10210;52.284;9.892;2024-03-02T04:52:57;24.33;;;13.20;;
20101;SDS011;10210;52.284;9.892;2024-03-02T04:55:23;24.97;;;13.30;;
20101;SDS011;10210;52.284;9.892;2024-03-02T04:58:09;26.53;;;14.33;;
20101;SDS011;10210;52.284;9.892;2024-03-02T05:00:34;25.47;;;14.07;;
20101;SDS011;10210;52.284;9.892;2024-03-02T05:03:01;25.47;;;13.63;;
20101;SDS011;10210;52.284;9.892;2024-03-02T05:05:27;24.30;;;13.20;;
20101;SDS011;10210;52.284;9.892;2024-03-02T05:07:53;27.80;;;15.03;;
20101;SDS011;10210;52.284;9.892;2024-03-02T05:10:19;26.07;;;14.73;;
20101;SDS011;10210;52.284;9.892;2024-03-02T05:12:45;24.43;;;13.10;;
20101;SDS011;10210;52.284;9.892;2024-03-02T05:15:11;25.53;;;12.30;;
20101;SDS011;10210;52.284;9.892;2024-03-02T05:17:39;26.40;;;14.20;;
20101;SDS011;10210;52.284;9.892;2024-03-02T05:20:08;24.00;;;12.87;;
20101;SDS011;10210;52.284;9.892;2024-03-02T05:22:34;25.83;;;12.67;;
20101;SDS011;10210;52.284;9.892;2024-03-02T05:25:01;25.03;;;12.63;;
20101;SDS011;10210;52.284;9.892;2024-03-02T05:27:28;22.80;;;11.30;;
20101;SDS011;10210;52.284;9.892;2024-03-02T05:29:53;22.33;;;11.83;;
20101;SDS011;10210;52.284;9.892;2024-03-02T05:32:19;23.83;;;12.50;;
20101;SDS011;10210;52.284;9.892;2024-03-02T05:34:45;24.57;;;12.23;;
20101;SDS011;10210;52.284;9.892;2024-03-02T05:37:10;22.30;;;11.33;;
20101;SDS011;10210;52.284;9.892;2024-03-02T05:39:36;25.23;;;14.37;;
20101;SDS011;10210;52.284;9.892;2024-03-02T05:42:02;26.83;;;14.07;;
20101;SDS011;10210;52.284;9.892;2024-03-02T05:44:28;26.00;;;14.03;;
20101;SDS011;10210;52.284;9.892;2024-03-02T05:46:54;24.73;;;14.13;;
20101;SDS011;10210;52.284;9.892;2024-03-02T05:49:21;26.87;;;13.67;;
20101;SDS011;10210;52.284;9.892;2024-03-02T05:51:47;25.57;;;14.20;;
20101;SDS011;10210;52.284;9.892;2024-03-02T05:54:13;27.10;;;15.07;;
20101;SDS011;10210;52.284;9.892;2024-03-02T05:56:39;25.33;;;14.03;;
20101;SDS011;10210;52.284;9.892;2024-03-02T05:59:04;24.57;;;13.50;;
20101;SDS011;10210;52.284;9.892;2024-03-02T06:01:42;25.10;;;13.57;;
20101;SDS011;10210;52.284;9.892;2024-03-02T06:04:09;26.53;;;14.27;;
20101;SDS011;10210;52.284;9.892;2024-03-02T06:06:38;24.27;;;13.13;;
20101;SDS011;10210;52.284;9.892;2024-03-02T06:09:05;23.43;;;12.90;;
20101;SDS011;10210;52.284;9.892;2024-03-02T06:11:33;23.33;;;12.37;;
20101;SDS011;10210;52.284;9.892;2024-03-02T06:14:00;22.73;;;12.00;;
20101;SDS011;10210;52.284;9.892;2024-03-02T06:16:26;23.10;;;11.50;;
20101;SDS011;10210;52.284;9.892;2024-03-02T06:18:51;24.50;;;12.67;;
20101;SDS011;10210;52.284;9.892;2024-03-02T06:21:18;23.37;;;12.03;;
20101;SDS011;10210;52.284;9.892;2024-03-02T06:23:45;22.10;;;10.93;;
20101;SDS011;10210;52.284;9.892;2024-03-02T06:26:11;22.60;;;11.63;;
20101;SDS011;10210;52.284;9.892;2024-03-02T06:28:37;22.27;;;11.27;;
20101;SDS011;10210;52.284;9.892;2024-03-02T06:31:03;22.60;;;11.40;;
20101;SDS011;10210;52.284;9.892;2024-03-02T06:33:29;22.73;;;11.30;;
20101;SDS011;10210;52.284;9.892;2024-03-02T06:35:55;21.63;;;11.50;;
20101;SDS011;10210;52.284;9.892;2024-03-02T06:38:21;22.37;;;11.47;;
20101;SDS011;10210;52.284;9.892;2024-03-02T06:40:48;21.90;;;11.67;;
20101;SDS011;10210;52.284;9.892;2024-03-02T06:43:13;22.97;;;12.13;;
20101;SDS011;10210;52.284;9.892;2024-03-02T06:45:39;22.33;;;11.57;;
20101;SDS011;10210;52.284;9.892;2024-03-02T06:48:05;23.00;;;11.80;;
20101;SDS011;10210;52.284;9.892;2024-03-02T06:50:31;22.67;;;12.30;;
20101;SDS011;10210;52.284;9.892;2024-03-02T06:52:56;28.63;;;16.53;;
20101;SDS011;10210;52.284;9.892;2024-03-02T06:55:22;27.87;;;15.90;;
20101;SDS011;10210;52.284;9.892;2024-03-02T06:57:49;27.33;;;14.37;;
20101;SDS011;10210;52.284;9.892;2024-03-02T07:00:15;26.87;;;15.00;;
20101;SDS011;10210;52.284;9.892;2024-03-02T07:02:43;28.07;;;16.37;;
20101;SDS011;10210;52.284;9.892;2024-03-02T07:05:09;26.13;;;14.17;;
20101;SDS011;10210;52.284;9.892;2024-03-02T07:07:36;28.67;;;15.90;;
20101;SDS011;10210;52.284;9.892;2024-03-02T07:10:03;26.90;;;14.73;;
20101;SDS011;10210;52.284;9.892;2024-03-02T07:12:35;26.10;;;14.33;;
20101;SDS011;10210;52.284;9.892;2024-03-02T07:15:01;27.77;;;14.10;;
20101;SDS011;10210;52.284;9.892;2024-03-02T07:17:28;27.20;;;14.40;;
20101;SDS011;10210;52.284;9.892;2024-03-02T07:19:54;25.50;;;13.93;;
20101;SDS011;10210;52.284;9.892;2024-03-02T07:22:20;26.60;;;14.17;;
20101;SDS011;10210;52.284;9.892;2024-03-02T07:24:47;24.00;;;13.20;;
20101;SDS011;10210;52.284;9.892;2024-03-02T07:27:14;24.17;;;13.60;;
20101;SDS011;10210;52.284;9.892;2024-03-02T07:29:41;24.03;;;13.30;;
20101;SDS011;10210;52.284;9.892;2024-03-02T07:32:08;26.00;;;14.37;;
20101;SDS011;10210;52.284;9.892;2024-03-02T07:34:35;27.03;;;14.73;;
20101;SDS011;10210;52.284;9.892;2024-03-02T07:37:02;25.73;;;14.07;;
20101;SDS011;10210;52.284;9.892;2024-03-02T07:39:28;23.20;;;13.10;;
20101;SDS011;10210;52.284;9.892;2024-03-02T07:41:55;27.20;;;13.87;;
20101;SDS011;10210;52.284;9.892;2024-03-02T07:44:21;24.17;;;13.33;;
20101;SDS011;10210;52.284;9.892;2024-03-02T07:46:48;26.17;;;14.30;;
20101;SDS011;10210;52.284;9.892;2024-03-02T07:49:16;25.83;;;14.27;;
20101;SDS011;10210;52.284;9.892;2024-03-02T07:51:43;23.90;;;12.93;;
20101;SDS011;10210;52.284;9.892;2024-03-02T07:54:09;25.17;;;13.93;;
20101;SDS011;10210;52.284;9.892;2024-03-02T07:56:35;25.63;;;14.27;;
20101;SDS011;10210;52.284;9.892;2024-03-02T07:59:01;25.77;;;13.77;;
20101;SDS011;10210;52.284;9.892;2024-03-02T08:01:28;24.73;;;13.90;;
20101;SDS011;10210;52.284;9.892;2024-03-02T08:03:57;22.70;;;12.27;;
20101;SDS011;10210;52.284;9.892;2024-03-02T08:06:25;23.43;;;12.77;;
20101;SDS011;10210;52.284;9.892;2024-03-02T08:08:58;23.97;;;13.50;;
20101;SDS011;10210;52.284;9.892;2024-03-02T08:11:25;23.20;;;13.00;;
20101;SDS011;10210;52.284;9.892;2024-03-02T08:13:56;24.80;;;13.00;;
20101;SDS011;10210;52.284;9.892;2024-03-02T08:16:22;26.73;;;13.83;;
20101;SDS011;10210;52.284;9.892;2024-03-02T08:18:49;25.43;;;14.47;;
20101;SDS011;10210;52.284;9.892;2024-03-02T08:21:14;24.00;;;13.30;;
20101;SDS011;10210;52.284;9.892;2024-03-02T08:23:41;23.63;;;13.77;;
20101;SDS011;10210;52.284;9.892;2024-03-02T08:26:11;22.43;;;12.90;;
20101;SDS011;10210;52.284;9.892;2024-03-02T08:28:37;21.87;;;12.27;;
20101;SDS011;10210;52.284;9.892;2024-03-02T08:31:03;22.23;;;12.43;;
20101;SDS011;10210;52.284;9.892;2024-03-02T08:33:29;22.10;;;12.73;;
20101;SDS011;10210;52.284;9.892;2024-03-02T08:35:55;20.97;;;11.87;;
20101;SDS011;10210;52.284;9.892;2024-03-02T08:38:21;21.80;;;12.37;;
20101;SDS011;10210;52.284;9.892;2024-03-02T08:40:48;21.97;;;12.53;;
20101;SDS011;10210;52.284;9.892;2024-03-02T08:43:15;25.17;;;14.67;;
20101;SDS011;10210;52.284;9.892;2024-03-02T08:45:41;23.90;;;13.87;;
20101;SDS011;10210;52.284;9.892;2024-03-02T08:48:07;23.43;;;13.77;;
20101;SDS011;10210;52.284;9.892;2024-03-02T08:50:34;22.87;;;13.40;;
20101;SDS011;10210;52.284;9.892;2024-03-02T08:53:00;24.70;;;13.93;;
20101;SDS011;10210;52.284;9.892;2024-03-02T08:55:26;25.23;;;13.87;;
20101;SDS011;10210;52.284;9.892;2024-03-02T08:57:51;22.80;;;12.63;;
20101;SDS011;10210;52.284;9.892;2024-03-02T09:00:17;21.67;;;13.10;;
20101;SDS011;10210;52.284;9.892;2024-03-02T09:02:44;25.00;;;14.50;;
20101;SDS011;10210;52.284;9.892;2024-03-02T09:05:10;21.97;;;12.93;;
20101;SDS011;10210;52.284;9.892;2024-03-02T09:07:36;24.23;;;13.83;;
20101;SDS011;10210;52.284;9.892;2024-03-02T09:10:03;22.87;;;12.13;;
20101;SDS011;10210;52.284;9.892;2024-03-02T09:12:31;22.07;;;12.60;;
20101;SDS011;10210;52.284;9.892;2024-03-02T09:14:57;25.20;;;12.83;;
20101;SDS011;10210;52.284;9.892;2024-03-02T09:17:25;22.97;;;13.13;;
20101;SDS011;10210;52.284;9.892;2024-03-02T09:19:50;22.67;;;12.47;;
20101;SDS011;10210;52.284;9.892;2024-03-02T09:22:19;21.67;;;12.17;;
20101;SDS011;10210;52.284;9.892;2024-03-02T09:24:45;22.90;;;12.20;;
20101;SDS011;10210;52.284;9.892;2024-03-02T09:27:10;21.63;;;12.07;;
20101;SDS011;10210;52.284;9.892;2024-03-02T09:29:37;22.77;;;12.53;;
20101;SDS011;10210;52.284;9.892;2024-03-02T09:32:03;22.43;;;12.20;;
20101;SDS011;10210;52.284;9.892;2024-03-02T09:34:30;22.47;;;12.70;;
20101;SDS011;10210;52.284;9.892;2024-03-02T09:36:57;20.90;;;11.33;;
20101;SDS011;10210;52.284;9.892;2024-03-02T09:39:23;20.50;;;11.30;;
20101;SDS011;10210;52.284;9.892;2024-03-02T09:41:50;21.43;;;11.07;;
20101;SDS011;10210;52.284;9.892;2024-03-02T09:44:16;22.07;;;12.03;;
20101;SDS011;10210;52.284;9.892;2024-03-02T09:46:42;20.83;;;11.20;;
20101;SDS011;10210;52.284;9.892;2024-03-02T09:49:09;22.50;;;11.30;;
20101;SDS011;10210;52.284;9.892;2024-03-02T09:51:36;18.80;;;9.70;;
20101;SDS011;10210;52.284;9.892;2024-03-02T09:54:02;19.80;;;10.83;;
20101;SDS011;10210;52.284;9.892;2024-03-02T09:56:28;19.30;;;10.20;;
20101;SDS011;10210;52.284;9.892;2024-03-02T09:58:54;19.97;;;10.50;;
20101;SDS011;10210;52.284;9.892;2024-03-02T10:01:20;19.13;;;9.93;;
20101;SDS011;10210;52.284;9.892;2024-03-02T10:03:47;20.43;;;10.30;;
20101;SDS011;10210;52.284;9.892;2024-03-02T10:06:23;19.07;;;10.07;;
20101;SDS011;10210;52.284;9.892;2024-03-02T10:08:53;16.83;;;8.80;;
20101;SDS011;10210;52.284;9.892;2024-03-02T10:11:30;19.80;;;9.97;;
20101;SDS011;10210;52.284;9.892;2024-03-02T10:14:08;18.43;;;9.57;;
20101;SDS011;10210;52.284;9.892;2024-03-02T10:16:36;17.83;;;8.93;;
20101;SDS011;10210;52.284;9.892;2024-03-02T10:19:20;21.00;;;9.30;;
20101;SDS011;10210;52.284;9.892;2024-03-02T10:21:48;19.27;;;9.40;;
20101;SDS011;10210;52.284;9.892;2024-03-02T10:24:18;18.10;;;8.10;;
20101;SDS011;10210;52.284;9.892;2024-03-02T10:26:52;18.45;;;8.83;;
20101;SDS011;10210;52.284;9.892;2024-03-02T10:29:19;17.63;;;8.67;;
20101;SDS011;10210;52.284;9.892;2024-03-02T10:31:45;16.97;;;8.23;;
20101;SDS011;10210;52.284;9.892;2024-03-02T10:34:13;16.73;;;8.00;;
20101;SDS011;10210;52.284;9.892;2024-03-02T10:36:41;17.10;;;7.63;;
20101;SDS011;10210;52.284;9.892;2024-03-02T10:39:10;15.43;;;7.53;;
20101;SDS011;10210;52.284;9.892;2024-03-02T10:41:38;16.57;;;7.93;;
20101;SDS011;10210;52.284;9.892;2024-03-02T10:44:06;15.27;;;6.90;;
20101;SDS011;10210;52.284;9.892;2024-03-02T10:46:35;16.13;;;7.60;;
20101;SDS011;10210;52.284;9.892;2024-03-02T10:49:03;16.43;;;6.67;;
20101;SDS011;10210;52.284;9.892;2024-03-02T10:51:31;15.93;;;7.10;;
20101;SDS011;10210;52.284;9.892;2024-03-02T10:53:58;15.33;;;6.70;;
20101;SDS011;10210;52.284;9.892;2024-03-02T10:56:29;16.07;;;7.23;;
20101;SDS011;10210;52.284;9.892;2024-03-02T11:02:07;16.33;;;7.63;;
20101;SDS011;10210;52.284;9.892;2024-03-02T11:04:37;18.03;;;8.07;;
20101;SDS011;10210;52.284;9.892;2024-03-02T11:07:09;16.83;;;8.00;;
20101;SDS011;10210;52.284;9.892;2024-03-02T11:09:45;17.80;;;9.13;;
20101;SDS011;10210;52.284;9.892;2024-03-02T11:12:35;17.07;;;8.27;;
20101;SDS011;10210;52.284;9.892;2024-03-02T11:15:11;16.20;;;7.87;;
20101;SDS011;10210;52.284;9.892;2024-03-02T11:17:44;16.57;;;7.50;;
20101;SDS011;10210;52.284;9.892;2024-03-02T11:20:11;16.60;;;8.00;;
20101;SDS011;10210;52.284;9.892;2024-03-02T11:22:38;17.77;;;8.57;;
20101;SDS011;10210;52.284;9.892;2024-03-02T11:25:04;17.53;;;8.13;;
20101;SDS011;10210;52.284;9.892;2024-03-02T11:35:25;17.97;;;7.43;;
20101;SDS011;10210;52.284;9.892;2024-03-02T11:37:55;15.50;;;7.70;;
20101;SDS011;10210;52.284;9.892;2024-03-02T11:40:27;16.03;;;7.47;;
20101;SDS011;10210;52.284;9.892;2024-03-02T11:42:53;16.10;;;7.50;;
20101;SDS011;10210;52.284;9.892;2024-03-02T11:45:22;17.80;;;7.90;;
20101;SDS011;10210;52.284;9.892;2024-03-02T11:47:58;15.93;;;6.67;;
20101;SDS011;10210;52.284;9.892;2024-03-02T11:50:35;16.20;;;7.30;;
20101;SDS011;10210;52.284;9.892;2024-03-02T11:53:06;15.40;;;7.23;;
20101;SDS011;10210;52.284;9.892;2024-03-02T11:55:37;15.57;;;7.47;;
20101;SDS011;10210;52.284;9.892;2024-03-02T11:58:13;18.30;;;6.93;;
20101;SDS011;10210;52.284;9.892;2024-03-02T12:00:45;14.90;;;6.37;;
20101;SDS011;10210;52.284;9.892;2024-03-02T12:03:12;14.07;;;6.37;;
20101;SDS011;10210;52.284;9.892;2024-03-02T12:05:42;15.63;;;5.60;;
20101;SDS011;10210;52.284;9.892;2024-03-02T12:08:08;14.90;;;6.20;;
20101;SDS011;10210;52.284;9.892;2024-03-02T12:10:35;14.43;;;6.80;;
20101;SDS011;10210;52.284;9.892;2024-03-02T12:13:02;13.50;;;5.77;;
20101;SDS011;10210;52.284;9.892;2024-03-02T12:15:30;13.20;;;5.63;;
20101;SDS011;10210;52.284;9.892;2024-03-02T12:18:01;14.87;;;6.50;;
20101;SDS011;10210;52.284;9.892;2024-03-02T12:20:29;14.80;;;6.17;;
20101;SDS011;10210;52.284;9.892;2024-03-02T12:22:58;15.37;;;6.20;;
20101;SDS011;10210;52.284;9.892;2024-03-02T12:25:26;12.20;;;5.20;;
20101;SDS011;10210;52.284;9.892;2024-03-02T12:27:58;13.20;;;5.77;;
20101;SDS011;10210;52.284;9.892;2024-03-02T12:30:27;13.10;;;5.63;;
20101;SDS011;10210;52.284;9.892;2024-03-02T12:32:56;13.70;;;5.40;;
20101;SDS011;10210;52.284;9.892;2024-03-02T12:35:21;13.43;;;6.10;;
20101;SDS011;10210;52.284;9.892;2024-03-02T12:37:51;13.50;;;5.70;;
20101;SDS011;10210;52.284;9.892;2024-03-02T12:40:18;15.73;;;6.80;;
20101;SDS011;10210;52.284;9.892;2024-03-02T12:42:47;14.87;;;6.00;;
20101;SDS011;10210;52.284;9.892;2024-03-02T12:45:14;14.10;;;5.97;;
20101;SDS011;10210;52.284;9.892;2024-03-02T12:47:41;14.43;;;5.93;;
20101;SDS011;10210;52.284;9.892;2024-03-02T12:50:08;13.93;;;5.80;;
20101;SDS011;10210;52.284;9.892;2024-03-02T12:52:35;12.57;;;5.00;;
20101;SDS011;10210;52.284;9.892;2024-03-02T12:55:06;13.10;;;5.63;;
20101;SDS011;10210;52.284;9.892;2024-03-02T12:57:33;14.13;;;5.97;;
20101;SDS011;10210;52.284;9.892;2024-03-02T13:00:03;13.83;;;5.50;;
20101;SDS011;10210;52.284;9.892;2024-03-02T13:02:34;13.13;;;5.77;;
20101;SDS011;10210;52.284;9.892;2024-03-02T13:05:01;14.87;;;6.03;;
20101;SDS011;10210;52.284;9.892;2024-03-02T13:07:28;13.90;;;5.90;;
20101;SDS011;10210;52.284;9.892;2024-03-02T13:09:55;13.67;;;5.30;;
20101;SDS011;10210;52.284;9.892;2024-03-02T13:12:21;14.60;;;5.27;;
20101;SDS011;10210;52.284;9.892;2024-03-02T13:14:49;12.63;;;4.87;;
20101;SDS011;10210;52.284;9.892;2024-03-02T13:17:19;12.00;;;4.70;;
20101;SDS011;10210;52.284;9.892;2024-03-02T13:19:55;13.87;;;5.30;;
20101;SDS011;10210;52.284;9.892;2024-03-02T13:22:23;12.63;;;4.43;;
20101;SDS011;10210;52.284;9.892;2024-03-02T13:24:50;10.90;;;4.10;;
20101;SDS011;10210;52.284;9.892;2024-03-02T13:27:17;11.20;;;4.10;;
20101;SDS011;10210;52.284;9.892;2024-03-02T13:29:46;10.07;;;3.80;;
20101;SDS011;10210;52.284;9.892;2024-03-02T13:32:13;10.93;;;4.00;;
20101;SDS011;10210;52.284;9.892;2024-03-02T13:34:42;11.60;;;4.07;;
20101;SDS011;10210;52.284;9.892;2024-03-02T13:37:08;10.63;;;3.93;;
20101;SDS011;10210;52.284;9.892;2024-03-02T13:39:34;10.90;;;3.73;;
20101;SDS011;10210;52.284;9.892;2024-03-02T13:42:08;10.03;;;3.40;;
20101;SDS011;10210;52.284;9.892;2024-03-02T13:44:35;10.53;;;3.33;;
20101;SDS011;10210;52.284;9.892;2024-03-02T13:47:03;9.00;;;3.27;;
20101;SDS011;10210;52.284;9.892;2024-03-02T13:49:30;10.63;;;3.67;;
20101;SDS011;10210;52.284;9.892;2024-03-02T13:52:01;10.33;;;3.97;;
20101;SDS011;10210;52.284;9.892;2024-03-02T13:54:36;11.33;;;4.23;;
20101;SDS011;10210;52.284;9.892;2024-03-02T13:57:03;9.33;;;3.40;;
20101;SDS011;10210;52.284;9.892;2024-03-02T13:59:29;9.27;;;2.80;;
20101;SDS011;10210;52.284;9.892;2024-03-02T14:01:55;9.40;;;2.70;;
20101;SDS011;10210;52.284;9.892;2024-03-02T14:04:21;8.17;;;2.80;;
20101;SDS011;10210;52.284;9.892;2024-03-02T14:06:47;7.23;;;2.63;;
20101;SDS011;10210;52.284;9.892;2024-03-02T14:09:12;6.87;;;2.47;;
20101;SDS011;10210;52.284;9.892;2024-03-02T14:11:38;9.77;;;3.50;;
20101;SDS011;10210;52.284;9.892;2024-03-02T14:14:04;12.65;;;5.00;;
20101;SDS011;10210;52.284;9.892;2024-03-02T14:16:29;11.23;;;4.20;;
20101;SDS011;10210;52.284;9.892;2024-03-02T14:18:55;9.70;;;3.83;;
20101;SDS011;10210;52.284;9.892;2024-03-02T14:21:24;9.93;;;3.90;;
20101;SDS011;10210;52.284;9.892;2024-03-02T14:23:50;11.80;;;4.17;;
20101;SDS011;10210;52.284;9.892;2024-03-02T14:26:15;11.47;;;4.20;;
20101;SDS011;10210;52.284;9.892;2024-03-02T14:28:41;11.00;;;4.23;;
20101;SDS011;10210;52.284;9.892;2024-03-02T14:31:07;11.53;;;4.17;;
20101;SDS011;10210;52.284;9.892;2024-03-02T14:33:32;11.00;;;4.20;;
20101;SDS011;10210;52.284;9.892;2024-03-02T14:35:59;10.30;;;3.77;;
20101;SDS011;10210;52.284;9.892;2024-03-02T14:38:25;9.80;;;3.80;;